sensor_id;sensor_type;location;lat;lon;timestamp;pressure;altitude;pressure_sealevel;temperature;humidity
47104;BME280;32853;52.164;5.400;2023-01-25T00:00:47;103721.59;;;3.73;100.00
47104;BME280;32853;52.164;5.400;2023-01-25T00:03:12;103746.69;;;4.00;100.00
47104;BME280;32853;52.164;5.400;2023-01-25T00:05:38;103719.53;;;3.89;100.00
47104;BME280;32853;52.164;5.400;2023-01-25T00:08:04;103740.75;;;4.04;100.00
47104;BME280;32853;52.164;5.400;2023-01-25T00:10:29;103735.28;;;3.95;100.00
47104;BME280;32853;52.164;5.400;2023-01-25T00:12:55;103743.81;;;3.92;100.00
47104;BME280;32853;52.164;5.400;2023-01-25T00:15:24;103688.88;;;3.75;100.00
47104;BME280;32853;52.164;5.400;2023-01-25T00:17:49;103640.31;;;3.43;100.00
47104;BME280;32853;52.164;5.400;2023-01-25T00:20:15;103684.78;;;3.57;100.00
47104;BME280;32853;52.164;5.400;2023-01-25T00:22:46;103719.31;;;3.83;100.00
47104;BME280;32853;52.164;5.400;2023-01-25T00:25:12;103730.81;;;3.91;100.00
47104;BME280;32853;52.164;5.400;2023-01-25T00:27:49;103672.31;;;3.70;100.00
47104;BME280;32853;52.164;5.400;2023-01-25T00:30:22;103724.34;;;4.03;100.00
47104;BME280;32853;52.164;5.400;2023-01-25T00:35:40;103716.66;;;4.06;100.00
47104;BME280;32853;52.164;5.400;2023-01-25T00:38:23;103723.56;;;4.06;100.00
47104;BME280;32853;52.164;5.400;2023-01-25T00:40:51;103675.63;;;3.66;100.00
47104;BME280;32853;52.164;5.400;2023-01-25T00:43:17;103725.69;;;3.92;100.00
47104;BME280;32853;52.164;5.400;2023-01-25T00:45:42;103722.00;;;3.86;100.00
47104;BME280;32853;52.164;5.400;2023-01-25T00:48:08;103717.94;;;3.92;100.00
47104;BME280;32853;52.164;5.400;2023-01-25T00:50:35;103688.25;;;3.83;100.00
47104;BME280;32853;52.164;5.400;2023-01-25T00:53:01;103687.97;;;3.75;100.00
47104;BME280;32853;52.164;5.400;2023-01-25T00:55:26;103725.00;;;3.98;100.00
47104;BME280;32853;52.164;5.400;2023-01-25T00:57:59;103717.38;;;4.01;100.00
47104;BME280;32853;52.164;5.400;2023-01-25T01:00:24;103662.53;;;3.62;100.00
47104;BME280;32853;52.164;5.400;2023-01-25T01:02:49;103679.25;;;3.71;100.00
47104;BME280;32853;52.164;5.400;2023-01-25T01:05:16;103720.78;;;4.00;100.00
47104;BME280;32853;52.164;5.400;2023-01-25T01:07:42;103676.72;;;3.73;100.00
47104;BME280;32853;52.164;5.400;2023-01-25T01:10:08;103703.56;;;3.76;100.00
47104;BME280;32853;52.164;5.400;2023-01-25T01:12:41;103710.41;;;3.74;100.00
47104;BME280;32853;52.164;5.400;2023-01-25T01:15:09;103655.44;;;3.56;100.00
47104;BME280;32853;52.164;5.400;2023-01-25T01:17:34;103680.50;;;3.57;100.00
47104;BME280;32853;52.164;5.400;2023-01-25T01:20:09;103706.09;;;3.75;100.00
47104;BME280;32853;52.164;5.400;2023-01-25T01:22:35;103654.63;;;3.57;100.00
47104;BME280;32853;52.164;5.400;2023-01-25T01:25:00;103705.59;;;3.85;100.00
47104;BME280;32853;52.164;5.400;2023-01-25T01:27:25;103698.94;;;3.92;100.00
47104;BME280;32853;52.164;5.400;2023-01-25T01:29:51;103687.91;;;3.72;100.00
47104;BME280;32853;52.164;5.400;2023-01-25T01:32:17;103694.31;;;3.83;100.00
47104;BME280;32853;52.164;5.400;2023-01-25T01:34:42;103650.38;;;3.59;100.00
47104;BME280;32853;52.164;5.400;2023-01-25T01:37:08;103700.59;;;3.90;100.00
47104;BME280;32853;52.164;5.400;2023-01-25T01:39:36;103705.78;;;3.90;100.00
47104;BME280;32853;52.164;5.400;2023-01-25T01:42:02;103640.84;;;3.58;100.00
47104;BME280;32853;52.164;5.400;2023-01-25T01:44:52;103668.38;;;3.56;100.00
47104;BME280;32853;52.164;5.400;2023-01-25T01:47:31;103687.97;;;3.75;100.00
47104;BME280;32853;52.164;5.400;2023-01-25T01:53:10;103650.00;;;3.48;100.00
47104;BME280;32853;52.164;5.400;2023-01-25T01:55:41;103690.69;;;3.78;100.00
47104;BME280;32853;52.164;5.400;2023-01-25T01:58:08;103619.19;;;3.31;100.00
47104;BME280;32853;52.164;5.400;2023-01-25T02:00:46;103659.00;;;3.60;100.00
47104;BME280;32853;52.164;5.400;2023-01-25T02:03:12;103679.66;;;3.58;100.00
47104;BME280;32853;52.164;5.400;2023-01-25T02:06:09;103679.44;;;3.52;100.00
47104;BME280;32853;52.164;5.400;2023-01-25T02:08:37;103672.56;;;3.53;100.00
47104;BME280;32853;52.164;5.400;2023-01-25T02:11:06;103688.22;;;3.56;100.00
47104;BME280;32853;52.164;5.400;2023-01-25T02:13:33;103603.66;;;3.05;100.00
47104;BME280;32853;52.164;5.400;2023-01-25T02:16:02;103681.16;;;3.52;100.00
47104;BME280;32853;52.164;5.400;2023-01-25T02:18:27;103655.13;;;3.47;100.00
47104;BME280;32853;52.164;5.400;2023-01-25T02:20:55;103673.97;;;3.68;100.00
47104;BME280;32853;52.164;5.400;2023-01-25T02:23:35;103644.91;;;3.52;100.00
47104;BME280;32853;52.164;5.400;2023-01-25T02:26:05;103567.56;;;3.08;100.00
47104;BME280;32853;52.164;5.400;2023-01-25T02:28:35;103577.06;;;3.09;100.00
47104;BME280;32853;52.164;5.400;2023-01-25T02:31:04;103672.31;;;3.70;100.00
47104;BME280;32853;52.164;5.400;2023-01-25T02:33:35;103628.09;;;3.39;100.00
47104;BME280;32853;52.164;5.400;2023-01-25T02:38:38;103679.56;;;3.55;100.00
47104;BME280;32853;52.164;5.400;2023-01-25T02:41:10;103606.63;;;3.16;100.00
47104;BME280;32853;52.164;5.400;2023-01-25T02:43:37;103663.81;;;3.49;100.00
47104;BME280;32853;52.164;5.400;2023-01-25T02:46:20;103658.03;;;3.56;100.00
47104;BME280;32853;52.164;5.400;2023-01-25T02:48:46;103660.91;;;3.40;100.00
47104;BME280;32853;52.164;5.400;2023-01-25T02:51:12;103663.09;;;3.53;100.00
47104;BME280;32853;52.164;5.400;2023-01-25T02:53:43;103599.22;;;3.27;100.00
47104;BME280;32853;52.164;5.400;2023-01-25T02:56:08;103658.03;;;3.56;100.00
47104;BME280;32853;52.164;5.400;2023-01-25T02:58:45;103602.69;;;3.27;100.00
47104;BME280;32853;52.164;5.400;2023-01-25T03:01:11;103645.84;;;3.54;100.00
47104;BME280;32853;52.164;5.400;2023-01-25T03:03:37;103646.44;;;3.45;100.00
47104;BME280;32853;52.164;5.400;2023-01-25T03:06:10;103641.78;;;3.35;100.00
47104;BME280;32853;52.164;5.400;2023-01-25T03:08:35;103640.72;;;3.30;100.00
47104;BME280;32853;52.164;5.400;2023-01-25T03:11:03;103631.53;;;3.38;100.00
47104;BME280;32853;52.164;5.400;2023-01-25T03:13:29;103636.78;;;3.41;100.00
47104;BME280;32853;52.164;5.400;2023-01-25T03:16:03;103640.53;;;3.49;100.00
47104;BME280;32853;52.164;5.400;2023-01-25T03:18:29;103587.53;;;3.12;100.00
47104;BME280;32853;52.164;5.400;2023-01-25T03:21:13;103636.28;;;3.51;100.00
47104;BME280;32853;52.164;5.400;2023-01-25T03:24:10;103633.13;;;3.60;100.00
47104;BME280;32853;52.164;5.400;2023-01-25T03:26:38;103621.59;;;3.50;100.00
47104;BME280;32853;52.164;5.400;2023-01-25T03:29:23;103631.19;;;3.54;100.00
47104;BME280;32853;52.164;5.400;2023-01-25T03:31:49;103601.13;;;3.32;100.00
47104;BME280;32853;52.164;5.400;2023-01-25T03:34:14;103587.41;;;3.33;100.00
47104;BME280;32853;52.164;5.400;2023-01-25T03:36:39;103613.00;;;3.51;100.00
47104;BME280;32853;52.164;5.400;2023-01-25T03:39:05;103558.88;;;3.32;100.00
47104;BME280;32853;52.164;5.400;2023-01-25T03:41:31;103585.22;;;3.45;100.00
47104;BME280;32853;52.164;5.400;2023-01-25T03:44:03;103522.13;;;3.15;100.00
47104;BME280;32853;52.164;5.400;2023-01-25T03:46:40;103600.22;;;3.56;100.00
47104;BME280;32853;52.164;5.400;2023-01-25T03:49:12;103594.38;;;3.61;100.00
47104;BME280;32853;52.164;5.400;2023-01-25T03:51:38;103589.53;;;3.45;100.00
47104;BME280;32853;52.164;5.400;2023-01-25T03:54:03;103542.03;;;3.17;100.00
47104;BME280;32853;52.164;5.400;2023-01-25T03:56:30;103595.41;;;3.41;100.00
47104;BME280;32853;52.164;5.400;2023-01-25T03:59:11;103603.06;;;3.38;100.00
47104;BME280;32853;52.164;5.400;2023-01-25T04:01:46;103608.09;;;3.33;100.00
47104;BME280;32853;52.164;5.400;2023-01-25T04:04:12;103601.03;;;3.29;100.00
47104;BME280;32853;52.164;5.400;2023-01-25T04:06:37;103559.69;;;3.05;100.00
47104;BME280;32853;52.164;5.400;2023-01-25T04:09:08;103544.78;;;2.98;100.00
47104;BME280;32853;52.164;5.400;2023-01-25T04:11:34;103545.63;;;2.97;100.00
47104;BME280;32853;52.164;5.400;2023-01-25T04:14:05;103528.25;;;2.93;100.00
47104;BME280;32853;52.164;5.400;2023-01-25T04:16:30;103610.22;;;3.21;100.00
47104;BME280;32853;52.164;5.400;2023-01-25T04:18:56;103590.22;;;3.15;100.00
47104;BME280;32853;52.164;5.400;2023-01-25T04:21:21;103586.84;;;3.18;100.00
47104;BME280;32853;52.164;5.400;2023-01-25T04:23:47;103610.59;;;3.32;100.00
47104;BME280;32853;52.164;5.400;2023-01-25T04:26:20;103592.72;;;3.12;100.00
47104;BME280;32853;52.164;5.400;2023-01-25T04:28:47;103537.19;;;2.77;100.00
47104;BME280;32853;52.164;5.400;2023-01-25T04:31:18;103540.13;;;2.88;100.00
47104;BME280;32853;52.164;5.400;2023-01-25T04:33:46;103599.09;;;3.22;100.00
47104;BME280;32853;52.164;5.400;2023-01-25T04:36:13;103565.28;;;3.17;100.00
47104;BME280;32853;52.164;5.400;2023-01-25T04:38:43;103579.50;;;3.30;100.00
47104;BME280;32853;52.164;5.400;2023-01-25T04:41:09;103574.19;;;3.26;100.00
47104;BME280;32853;52.164;5.400;2023-01-25T04:43:34;103576.09;;;3.31;100.00
47104;BME280;32853;52.164;5.400;2023-01-25T04:46:01;103514.03;;;3.06;100.00
47104;BME280;32853;52.164;5.400;2023-01-25T04:48:27;103579.38;;;3.26;100.00
47104;BME280;32853;52.164;5.400;2023-01-25T04:50:53;103491.94;;;2.88;100.00
47104;BME280;32853;52.164;5.400;2023-01-25T04:53:18;103564.97;;;3.08;100.00
47104;BME280;32853;52.164;5.400;2023-01-25T04:55:45;103470.97;;;2.55;100.00
47104;BME280;32853;52.164;5.400;2023-01-25T04:58:11;103553.78;;;3.09;100.00
47104;BME280;32853;52.164;5.400;2023-01-25T05:00:37;103548.53;;;3.06;100.00
47104;BME280;32853;52.164;5.400;2023-01-25T05:03:02;103557.16;;;3.07;100.00
47104;BME280;32853;52.164;5.400;2023-01-25T05:05:27;103499.03;;;2.70;100.00
47104;BME280;32853;52.164;5.400;2023-01-25T05:07:53;103561.63;;;2.87;100.00
47104;BME280;32853;52.164;5.400;2023-01-25T05:10:18;103566.09;;;2.91;100.00
47104;BME280;32853;52.164;5.400;2023-01-25T05:12:44;103563.72;;;2.97;100.00
47104;BME280;32853;52.164;5.400;2023-01-25T05:15:10;103554.97;;;2.94;100.00
47104;BME280;32853;52.164;5.400;2023-01-25T05:17:43;103555.56;;;3.10;100.00
47104;BME280;32853;52.164;5.400;2023-01-25T05:20:17;103560.22;;;3.20;100.00
47104;BME280;32853;52.164;5.400;2023-01-25T05:22:42;103555.03;;;3.20;100.00
47104;BME280;32853;52.164;5.400;2023-01-25T05:25:08;103496.41;;;2.94;100.00
47104;BME280;32853;52.164;5.400;2023-01-25T05:27:56;103541.41;;;3.25;100.00
47104;BME280;32853;52.164;5.400;2023-01-25T05:30:21;103486.22;;;2.99;100.00
47104;BME280;32853;52.164;5.400;2023-01-25T05:32:48;103547.19;;;3.17;100.00
47104;BME280;32853;52.164;5.400;2023-01-25T05:35:14;103520.97;;;3.07;100.00
47104;BME280;32853;52.164;5.400;2023-01-25T05:37:42;103546.22;;;3.14;100.00
47104;BME280;32853;52.164;5.400;2023-01-25T05:40:11;103537.34;;;3.07;100.00
47104;BME280;32853;52.164;5.400;2023-01-25T05:42:56;103551.13;;;3.06;100.00
47104;BME280;32853;52.164;5.400;2023-01-25T05:45:22;103543.31;;;3.05;100.00
47104;BME280;32853;52.164;5.400;2023-01-25T05:47:53;103536.69;;;3.13;100.00
47104;BME280;32853;52.164;5.400;2023-01-25T05:50:20;103500.19;;;2.78;100.00
47104;BME280;32853;52.164;5.400;2023-01-25T05:52:49;103508.44;;;2.94;100.00
47104;BME280;32853;52.164;5.400;2023-01-25T05:55:19;103559.94;;;3.11;100.00
47104;BME280;32853;52.164;5.400;2023-01-25T05:57:46;103549.44;;;3.08;100.00
47104;BME280;32853;52.164;5.400;2023-01-25T06:00:12;103545.22;;;3.10;100.00
47104;BME280;32853;52.164;5.400;2023-01-25T06:02:39;103547.88;;;3.12;100.00
47104;BME280;32853;52.164;5.400;2023-01-25T06:05:05;103527.38;;;2.92;100.00
47104;BME280;32853;52.164;5.400;2023-01-25T06:07:36;103557.91;;;3.03;100.00
47104;BME280;32853;52.164;5.400;2023-01-25T06:10:10;103506.19;;;2.77;100.00
47104;BME280;32853;52.164;5.400;2023-01-25T06:12:37;103556.28;;;3.06;100.00
47104;BME280;32853;52.164;5.400;2023-01-25T06:15:06;103554.09;;;2.93;100.00
47104;BME280;32853;52.164;5.400;2023-01-25T06:17:33;103517.06;;;2.69;100.00
47104;BME280;32853;52.164;5.400;2023-01-25T06:19:58;103509.31;;;2.69;100.00
47104;BME280;32853;52.164;5.400;2023-01-25T06:22:23;103561.03;;;2.94;100.00
47104;BME280;32853;52.164;5.400;2023-01-25T06:24:49;103527.50;;;2.72;100.00
47104;BME280;32853;52.164;5.400;2023-01-25T06:27:14;103501.81;;;2.52;100.00
47104;BME280;32853;52.164;5.400;2023-01-25T06:29:40;103552.69;;;2.77;100.00
47104;BME280;32853;52.164;5.400;2023-01-25T06:32:09;103553.88;;;2.87;100.00
47104;BME280;32853;52.164;5.400;2023-01-25T06:34:47;103497.97;;;2.65;100.00
47104;BME280;32853;52.164;5.400;2023-01-25T06:37:15;103556.00;;;2.99;100.00
47104;BME280;32853;52.164;5.400;2023-01-25T06:39:48;103557.28;;;2.86;100.00
47104;BME280;32853;52.164;5.400;2023-01-25T06:42:22;103557.28;;;2.86;100.00
47104;BME280;32853;52.164;5.400;2023-01-25T06:44:48;103561.09;;;2.72;100.00
47104;BME280;32853;52.164;5.400;2023-01-25T06:47:13;103546.41;;;2.71;100.00
47104;BME280;32853;52.164;5.400;2023-01-25T06:49:39;103548.31;;;2.76;100.00
47104;BME280;32853;52.164;5.400;2023-01-25T06:52:04;103529.84;;;2.66;100.00
47104;BME280;32853;52.164;5.400;2023-01-25T06:54:32;103552.31;;;2.67;100.00
47104;BME280;32853;52.164;5.400;2023-01-25T06:56:58;103498.59;;;2.34;100.00
47104;BME280;32853;52.164;5.400;2023-01-25T06:59:23;103450.31;;;2.09;100.00
47104;BME280;32853;52.164;5.400;2023-01-25T07:01:49;103528.91;;;2.63;100.00
47104;BME280;32853;52.164;5.400;2023-01-25T07:04:14;103552.78;;;2.80;100.00
47104;BME280;32853;52.164;5.400;2023-01-25T07:06:40;103494.41;;;2.61;100.00
47104;BME280;32853;52.164;5.400;2023-01-25T07:09:10;103446.22;;;2.14;100.00
47104;BME280;32853;52.164;5.400;2023-01-25T07:11:36;103475.22;;;2.31;100.00
47104;BME280;32853;52.164;5.400;2023-01-25T07:14:02;103529.94;;;2.67;100.00
47104;BME280;32853;52.164;5.400;2023-01-25T07:16:28;103517.50;;;2.57;100.00
47104;BME280;32853;52.164;5.400;2023-01-25T07:18:54;103507.13;;;2.55;100.00
47104;BME280;32853;52.164;5.400;2023-01-25T07:21:22;103516.63;;;2.56;100.00
47104;BME280;32853;52.164;5.400;2023-01-25T07:23:49;103527.13;;;2.61;100.00
47104;BME280;32853;52.164;5.400;2023-01-25T07:26:19;103484.97;;;2.38;100.00
47104;BME280;32853;52.164;5.400;2023-01-25T07:28:53;103537.06;;;2.50;100.00
47104;BME280;32853;52.164;5.400;2023-01-25T07:31:35;103541.63;;;2.57;100.00
47104;BME280;32853;52.164;5.400;2023-01-25T07:34:03;103513.75;;;2.49;100.00
47104;BME280;32853;52.164;5.400;2023-01-25T07:36:50;103532.56;;;2.69;100.00
47104;BME280;32853;52.164;5.400;2023-01-25T07:39:22;103537.00;;;2.73;100.00
47104;BME280;32853;52.164;5.400;2023-01-25T07:41:48;103527.84;;;2.57;100.00
47104;BME280;32853;52.164;5.400;2023-01-25T07:44:13;103529.00;;;2.43;100.00
47104;BME280;32853;52.164;5.400;2023-01-25T07:46:39;103533.09;;;2.36;100.00
47104;BME280;32853;52.164;5.400;2023-01-25T07:49:04;103429.75;;;1.88;100.00
47104;BME280;32853;52.164;5.400;2023-01-25T07:51:30;103520.84;;;2.54;100.00
47104;BME280;32853;52.164;5.400;2023-01-25T07:53:58;103458.91;;;2.32;100.00
47104;BME280;32853;52.164;5.400;2023-01-25T07:56:32;103484.72;;;2.32;100.00
47104;BME280;32853;52.164;5.400;2023-01-25T07:58:59;103498.59;;;2.34;100.00
47104;BME280;32853;52.164;5.400;2023-01-25T08:01:27;103518.94;;;2.49;100.00
47104;BME280;32853;52.164;5.400;2023-01-25T08:03:54;103504.63;;;2.35;100.00
47104;BME280;32853;52.164;5.400;2023-01-25T08:06:28;103498.31;;;2.50;100.00
47104;BME280;32853;52.164;5.400;2023-01-25T08:09:07;103474.38;;;2.32;100.00
47104;BME280;32853;52.164;5.400;2023-01-25T08:11:33;103503.03;;;2.38;100.00
47104;BME280;32853;52.164;5.400;2023-01-25T08:13:59;103499.53;;;2.36;100.00
47104;BME280;32853;52.164;5.400;2023-01-25T08:16:50;103503.47;;;2.50;100.00
47104;BME280;32853;52.164;5.400;2023-01-25T08:19:15;103507.81;;;2.51;100.00
47104;BME280;32853;52.164;5.400;2023-01-25T08:21:44;103511.81;;;2.43;100.00
47104;BME280;32853;52.164;5.400;2023-01-25T08:24:09;103471.38;;;2.20;100.00
47104;BME280;32853;52.164;5.400;2023-01-25T08:26:35;103472.19;;;2.19;100.00
47104;BME280;32853;52.164;5.400;2023-01-25T08:29:02;103513.47;;;2.41;100.00
47104;BME280;32853;52.164;5.400;2023-01-25T08:31:33;103506.06;;;2.50;100.00
47104;BME280;32853;52.164;5.400;2023-01-25T08:33:59;103479.78;;;2.38;100.00
47104;BME280;32853;52.164;5.400;2023-01-25T08:36:25;103509.41;;;2.48;100.00
47104;BME280;32853;52.164;5.400;2023-01-25T08:39:07;103456.69;;;2.19;100.00
47104;BME280;32853;52.164;5.400;2023-01-25T08:41:39;103508.53;;;2.47;100.00
47104;BME280;32853;52.164;5.400;2023-01-25T08:44:06;103476.19;;;2.33;100.00
47104;BME280;32853;52.164;5.400;2023-01-25T08:46:32;103482.44;;;2.40;100.00
47104;BME280;32853;52.164;5.400;2023-01-25T08:48:59;103500.16;;;2.54;100.00
47104;BME280;32853;52.164;5.400;2023-01-25T08:51:30;103483.63;;;2.49;100.00
47104;BME280;32853;52.164;5.400;2023-01-25T08:54:00;103486.75;;;2.65;100.00
47104;BME280;32853;52.164;5.400;2023-01-25T08:56:26;103488.50;;;2.66;100.00
47104;BME280;32853;52.164;5.400;2023-01-25T08:58:52;103437.50;;;2.35;100.00
47104;BME280;32853;52.164;5.400;2023-01-25T09:01:18;103410.03;;;2.13;100.00
47104;BME280;32853;52.164;5.400;2023-01-25T09:03:48;103381.94;;;1.98;100.00
47104;BME280;32853;52.164;5.400;2023-01-25T09:06:16;103465.41;;;2.45;100.00
47104;BME280;32853;52.164;5.400;2023-01-25T09:08:42;103418.16;;;2.23;100.00
47104;BME280;32853;52.164;5.400;2023-01-25T09:11:12;103418.09;;;2.22;100.00
47104;BME280;32853;52.164;5.400;2023-01-25T09:13:38;103475.06;;;2.50;100.00
47104;BME280;32853;52.164;5.400;2023-01-25T09:16:14;103470.03;;;2.55;100.00
47104;BME280;32853;52.164;5.400;2023-01-25T09:18:40;103466.91;;;2.63;100.00
47104;BME280;32853;52.164;5.400;2023-01-25T09:21:12;103418.34;;;2.29;100.00
47104;BME280;32853;52.164;5.400;2023-01-25T09:23:56;103454.88;;;2.64;100.00
47104;BME280;32853;52.164;5.400;2023-01-25T09:26:22;103471.00;;;2.57;100.00
47104;BME280;32853;52.164;5.400;2023-01-25T09:28:55;103460.03;;;2.64;100.00
47104;BME280;32853;52.164;5.400;2023-01-25T09:31:20;103457.09;;;2.53;100.00
47104;BME280;32853;52.164;5.400;2023-01-25T09:33:46;103466.38;;;2.48;100.00
47104;BME280;32853;52.164;5.400;2023-01-25T09:36:12;103464.53;;;2.44;100.00
47104;BME280;32853;52.164;5.400;2023-01-25T09:39:05;103459.91;;;2.59;100.00
47104;BME280;32853;52.164;5.400;2023-01-25T09:47:54;103448.69;;;2.59;100.00
47104;BME280;32853;52.164;5.400;2023-01-25T09:55:38;103360.97;;;2.13;100.00
47104;BME280;32853;52.164;5.400;2023-01-25T09:58:19;103370.38;;;2.11;100.00
47104;BME280;32853;52.164;5.400;2023-01-25T10:04:29;103448.09;;;2.66;100.00
47104;BME280;32853;52.164;5.400;2023-01-25T10:13:01;103425.34;;;2.81;100.00
47104;BME280;32853;52.164;5.400;2023-01-25T10:15:38;103410.19;;;2.67;100.00
47104;BME280;32853;52.164;5.400;2023-01-25T10:18:29;103413.44;;;2.86;100.00
47104;BME280;32853;52.164;5.400;2023-01-25T10:21:11;103391.47;;;2.74;100.00
47104;BME280;32853;52.164;5.400;2023-01-25T10:26:24;103409.13;;;2.87;100.00
47104;BME280;32853;52.164;5.400;2023-01-25T10:29:00;103349.31;;;2.49;100.00
47104;BME280;32853;52.164;5.400;2023-01-25T10:31:36;103298.53;;;2.23;100.00
47104;BME280;32853;52.164;5.400;2023-01-25T10:34:16;103308.53;;;2.39;100.00
47104;BME280;32853;52.164;5.400;2023-01-25T10:36:45;103389.47;;;2.90;100.00
47104;BME280;32853;52.164;5.400;2023-01-25T10:39:11;103379.13;;;2.90;100.00
47104;BME280;32853;52.164;5.400;2023-01-25T10:41:38;103373.97;;;2.90;100.00
47104;BME280;32853;52.164;5.400;2023-01-25T10:44:10;103312.03;;;2.67;100.00
47104;BME280;32853;52.164;5.400;2023-01-25T10:46:55;103372.63;;;3.03;100.00
47104;BME280;32853;52.164;5.400;2023-01-25T10:52:35;103320.78;;;2.72;100.00
47104;BME280;32853;52.164;5.400;2023-01-25T10:55:17;103367.13;;;2.92;100.00
47104;BME280;32853;52.164;5.400;2023-01-25T10:57:49;103370.59;;;2.93;100.00
47104;BME280;32853;52.164;5.400;2023-01-25T11:00:27;103355.31;;;2.74;100.00
47104;BME280;32853;52.164;5.400;2023-01-25T11:02:57;103301.09;;;2.48;100.00
47104;BME280;32853;52.164;5.400;2023-01-25T11:05:25;103329.03;;;2.35;100.00
47104;BME280;32853;52.164;5.400;2023-01-25T11:07:53;103350.34;;;2.54;100.00
47104;BME280;32853;52.164;5.400;2023-01-25T11:10:32;103331.47;;;2.82;100.00
47104;BME280;32853;52.164;5.400;2023-01-25T11:15:46;103267.06;;;2.35;100.00
47104;BME280;32853;52.164;5.400;2023-01-25T11:18:32;103320.22;;;2.80;100.00
47104;BME280;32853;52.164;5.400;2023-01-25T11:21:20;103322.72;;;2.77;100.00
47104;BME280;32853;52.164;5.400;2023-01-25T11:24:15;103316.88;;;2.57;100.00
47104;BME280;32853;52.164;5.400;2023-01-25T11:26:44;103306.50;;;2.56;100.00
47104;BME280;32853;52.164;5.400;2023-01-25T11:29:21;103297.56;;;2.46;100.00
47104;BME280;32853;52.164;5.400;2023-01-25T11:31:49;103302.78;;;2.48;100.00
47104;BME280;32853;52.164;5.400;2023-01-25T11:34:18;103295.00;;;2.46;100.00
47104;BME280;32853;52.164;5.400;2023-01-25T11:49:06;103251.56;;;2.61;100.00
47104;BME280;32853;52.164;5.400;2023-01-25T11:51:40;103244.31;;;2.50;100.00
47104;BME280;32853;52.164;5.400;2023-01-25T11:57:44;103217.09;;;2.61;100.00
47104;BME280;32853;52.164;5.400;2023-01-25T12:00:20;103206.03;;;2.65;100.00
47104;BME280;32853;52.164;5.400;2023-01-25T12:09:02;103175.03;;;2.65;100.00
47104;BME280;32853;52.164;5.400;2023-01-25T12:20:08;103094.31;;;2.15;100.00
47104;BME280;32853;52.164;5.400;2023-01-25T12:22:58;103156.38;;;2.45;100.00
47104;BME280;32853;52.164;5.400;2023-01-25T12:26:18;103137.34;;;2.43;100.00
47104;BME280;32853;52.164;5.400;2023-01-25T12:28:49;103071.28;;;1.94;100.00
47104;BME280;32853;52.164;5.400;2023-01-25T12:31:24;103126.88;;;2.39;100.00
47104;BME280;32853;52.164;5.400;2023-01-25T12:34:14;103144.78;;;2.61;100.00
47104;BME280;32853;52.164;5.400;2023-01-25T12:36:51;103145.69;;;2.63;100.00
47104;BME280;32853;52.164;5.400;2023-01-25T12:39:30;103043.28;;;2.07;100.00
47104;BME280;32853;52.164;5.400;2023-01-25T12:45:04;103127.84;;;2.71;100.00
47104;BME280;32853;52.164;5.400;2023-01-25T12:47:38;103102.53;;;2.89;100.00
47104;BME280;32853;52.164;5.400;2023-01-25T12:50:27;103048.41;;;2.63;100.00
47104;BME280;32853;52.164;5.400;2023-01-25T12:52:58;103091.31;;;2.88;100.00
47104;BME280;32853;52.164;5.400;2023-01-25T12:55:35;103041.09;;;2.49;100.00
47104;BME280;32853;52.164;5.400;2023-01-25T13:06:46;103012.69;;;2.19;100.00
47104;BME280;32853;52.164;5.400;2023-01-25T13:09:44;103065.13;;;2.46;100.00
47104;BME280;32853;52.164;5.400;2023-01-25T13:12:14;103026.00;;;1.77;100.00
47104;BME280;32853;52.164;5.400;2023-01-25T13:14:40;103067.75;;;1.91;100.00
47104;BME280;32853;52.164;5.400;2023-01-25T13:17:30;103068.84;;;1.99;100.00
47104;BME280;32853;52.164;5.400;2023-01-25T13:20:00;103075.81;;;2.58;100.00
47104;BME280;32853;52.164;5.400;2023-01-25T13:27:41;103073.81;;;2.48;100.00
47104;BME280;32853;52.164;5.400;2023-01-25T13:30:33;103069.91;;;2.62;100.00
47104;BME280;32853;52.164;5.400;2023-01-25T13:33:04;103055.38;;;2.66;100.00
47104;BME280;32853;52.164;5.400;2023-01-25T13:35:38;103063.63;;;2.54;100.00
47104;BME280;32853;52.164;5.400;2023-01-25T13:40:39;103070.25;;;2.16;100.00
47104;BME280;32853;52.164;5.400;2023-01-25T13:45:37;103060.84;;;1.90;100.00
47104;BME280;32853;52.164;5.400;2023-01-25T13:50:35;103010.66;;;1.53;100.00
47104;BME280;32853;52.164;5.400;2023-01-25T14:03:43;102961.97;;;1.35;100.00
47104;BME280;32853;52.164;5.400;2023-01-25T14:06:22;103031.00;;;1.71;100.00
47104;BME280;32853;52.164;5.400;2023-01-25T14:08:49;103021.59;;;1.73;100.00
47104;BME280;32853;52.164;5.400;2023-01-25T14:11:32;103010.78;;;1.85;100.00
47104;BME280;32853;52.164;5.400;2023-01-25T14:14:31;103011.78;;;1.61;100.00
47104;BME280;32853;52.164;5.400;2023-01-25T14:17:17;103008.75;;;1.74;100.00
47104;BME280;32853;52.164;5.400;2023-01-25T14:19:52;103020.81;;;1.75;100.00
47104;BME280;32853;52.164;5.400;2023-01-25T14:25:19;102998.56;;;2.08;100.00
47104;BME280;32853;52.164;5.400;2023-01-25T14:27:58;102998.88;;;2.18;100.00
47104;BME280;32853;52.164;5.400;2023-01-25T14:30:32;102996.22;;;2.15;100.00
47104;BME280;32853;52.164;5.400;2023-01-25T14:32:59;102931.03;;;1.92;100.00
47104;BME280;32853;52.164;5.400;2023-01-25T14:37:56;102991.84;;;2.13;100.00
47104;BME280;32853;52.164;5.400;2023-01-25T14:40:23;102954.63;;;1.76;100.00
47104;BME280;32853;52.164;5.400;2023-01-25T14:42:54;103007.56;;;2.20;100.00
47104;BME280;32853;52.164;5.400;2023-01-25T14:45:23;102975.53;;;2.14;100.00
47104;BME280;32853;52.164;5.400;2023-01-25T14:47:53;102991.53;;;2.32;100.00
47104;BME280;32853;52.164;5.400;2023-01-25T14:52:56;102917.31;;;1.93;100.00
47104;BME280;32853;52.164;5.400;2023-01-25T14:55:22;103008.13;;;2.40;100.00
47104;BME280;32853;52.164;5.400;2023-01-25T14:57:48;102965.25;;;2.15;100.00
47104;BME280;32853;52.164;5.400;2023-01-25T15:03:14;102995.91;;;2.33;100.00